createdAt,value
2018-12-04T00:00:27.125Z,998.52
2018-12-04T00:01:27.094Z,998.56
2018-12-04T00:02:27.063Z,998.54
2018-12-04T00:03:27.036Z,998.59
2018-12-04T00:04:27.005Z,998.59
2018-12-04T00:05:26.976Z,998.67
2018-12-04T00:06:26.945Z,998.65
2018-12-04T00:07:26.916Z,998.63
2018-12-04T00:08:26.883Z,998.62
2018-12-04T00:09:26.855Z,998.66
2018-12-04T00:10:26.823Z,998.69
2018-12-04T00:11:26.795Z,998.76
2018-12-04T00:12:26.763Z,998.73
2018-12-04T00:13:26.733Z,998.76
2018-12-04T00:14:26.705Z,998.82
2018-12-04T00:15:26.674Z,998.93
2018-12-04T00:16:26.643Z,999.27
2018-12-04T00:17:26.615Z,999.38
2018-12-04T00:18:26.584Z,999.40
2018-12-04T00:19:26.556Z,999.41
2018-12-04T00:20:26.523Z,999.48
2018-12-04T00:21:26.494Z,999.50
2018-12-04T00:22:26.464Z,999.47
2018-12-04T00:23:26.432Z,999.56
2018-12-04T00:24:26.402Z,999.60
2018-12-04T00:25:26.373Z,999.63
2018-12-04T00:26:26.342Z,999.60
2018-12-04T00:27:26.311Z,999.63
2018-12-04T00:28:26.279Z,999.59
2018-12-04T00:29:26.249Z,999.65
2018-12-04T00:30:26.220Z,999.75
2018-12-04T00:31:26.189Z,999.79
2018-12-04T00:32:26.157Z,999.84
2018-12-04T00:33:26.127Z,999.87
2018-12-04T00:34:26.095Z,999.91
2018-12-04T00:35:26.063Z,999.87
2018-12-04T00:36:26.032Z,999.98
2018-12-04T00:37:26.001Z,999.96
2018-12-04T00:38:25.971Z,999.96
2018-12-04T00:39:25.939Z,999.99
2018-12-04T00:40:25.907Z,1000.05
2018-12-04T00:41:25.875Z,1000.04
2018-12-04T00:42:25.845Z,1000.09
2018-12-04T00:43:25.814Z,1000.09
2018-12-04T00:44:25.780Z,1000.12
2018-12-04T00:45:25.751Z,1000.17
2018-12-04T00:46:25.719Z,1000.19
2018-12-04T00:47:25.686Z,1000.24
2018-12-04T00:48:25.652Z,1000.23
2018-12-04T00:49:25.622Z,1000.33
2018-12-04T00:50:25.592Z,1000.33
2018-12-04T00:51:25.561Z,1000.40
2018-12-04T00:52:25.526Z,1000.47
2018-12-04T00:53:25.496Z,1000.44
2018-12-04T00:54:25.465Z,1000.47
2018-12-04T00:55:25.434Z,1000.45
2018-12-04T00:56:25.400Z,1000.46
2018-12-04T00:57:25.369Z,1000.42
2018-12-04T00:58:25.341Z,1000.48
2018-12-04T00:59:25.306Z,1000.52
2018-12-04T01:00:25.272Z,1000.52
2018-12-04T01:01:25.247Z,1000.56
2018-12-04T01:02:25.210Z,1000.62
2018-12-04T01:03:25.178Z,1000.68
2018-12-04T01:04:25.145Z,1000.71
2018-12-04T01:05:25.114Z,1000.76
2018-12-04T01:06:25.083Z,1000.79
2018-12-04T01:07:25.051Z,1000.80
2018-12-04T01:08:25.020Z,1000.79
2018-12-04T01:09:24.987Z,1000.88
2018-12-04T01:10:24.956Z,1000.84
2018-12-04T01:11:24.924Z,1000.88
2018-12-04T01:12:24.891Z,1000.89
2018-12-04T01:13:24.859Z,1000.93
2018-12-04T01:14:24.826Z,1000.98
2018-12-04T01:15:24.795Z,1001.04
2018-12-04T01:16:24.763Z,1001.07
2018-12-04T01:17:24.731Z,1001.04
2018-12-04T01:18:24.698Z,1001.14
2018-12-04T01:19:24.668Z,1001.11
2018-12-04T01:20:24.635Z,1001.16
2018-12-04T01:21:24.603Z,1001.18
2018-12-04T01:22:24.570Z,1001.19
2018-12-04T01:23:24.540Z,1001.17
2018-12-04T01:24:24.510Z,1001.23
2018-12-04T01:25:24.475Z,1001.29
2018-12-04T01:26:24.443Z,1001.30
2018-12-04T01:27:24.410Z,1001.36
2018-12-04T01:28:24.379Z,1001.36
2018-12-04T01:29:24.345Z,1001.39
2018-12-04T01:30:24.314Z,1001.40
2018-12-04T01:31:24.282Z,1001.40
2018-12-04T01:32:24.250Z,1001.42
2018-12-04T01:33:24.217Z,1001.43
2018-12-04T01:34:24.186Z,1001.44
2018-12-04T01:35:24.153Z,1001.46
2018-12-04T01:36:24.121Z,1001.48
2018-12-04T01:37:24.088Z,1001.46
2018-12-04T01:38:24.056Z,1001.50
2018-12-04T01:39:24.029Z,1001.49
2018-12-04T01:40:23.992Z,1001.52
2018-12-04T01:41:23.960Z,1001.53
2018-12-04T01:42:23.929Z,1001.55
2018-12-04T01:43:23.896Z,1001.55
2018-12-04T01:44:23.864Z,1001.62
2018-12-04T01:45:23.832Z,1001.61
2018-12-04T01:46:23.800Z,1001.63
2018-12-04T01:47:23.767Z,1001.66
2018-12-04T01:48:23.737Z,1001.66
2018-12-04T01:49:23.703Z,1001.69
2018-12-04T01:50:23.678Z,1001.71
2018-12-04T01:51:23.639Z,1001.75
2018-12-04T01:52:23.607Z,1001.73
2018-12-04T01:53:23.574Z,1001.80
2018-12-04T01:54:23.541Z,1001.78
2018-12-04T01:55:23.509Z,1001.79
2018-12-04T01:56:23.475Z,1001.85
2018-12-04T01:57:23.456Z,1001.87
2018-12-04T01:58:23.418Z,1001.87
2018-12-04T01:59:23.380Z,1001.94
2018-12-04T02:00:23.346Z,1001.96
2018-12-04T02:01:23.315Z,1002.00
2018-12-04T02:02:23.284Z,1002.02
2018-12-04T02:03:23.250Z,1002.07
2018-12-04T02:04:23.219Z,1002.06
2018-12-04T02:05:23.187Z,1002.08
2018-12-04T02:06:23.155Z,1002.11
2018-12-04T02:07:23.122Z,1002.17
2018-12-04T02:08:23.089Z,1002.15
2018-12-04T02:09:23.057Z,1002.18
2018-12-04T02:10:23.026Z,1002.19
2018-12-04T02:11:22.993Z,1002.26
2018-12-04T02:12:22.962Z,1002.30
2018-12-04T02:13:22.927Z,1002.33
2018-12-04T02:14:22.948Z,1002.36
2018-12-04T02:15:22.863Z,1002.35
2018-12-04T02:16:22.832Z,1002.39
2018-12-04T02:17:22.798Z,1002.38
2018-12-04T02:18:22.767Z,1002.41
2018-12-04T02:19:22.773Z,1002.39
2018-12-04T02:20:22.702Z,1002.40
2018-12-04T02:21:22.669Z,1002.44
2018-12-04T02:22:22.636Z,1002.45
2018-12-04T02:23:22.606Z,1002.47
2018-12-04T02:24:22.574Z,1002.47
2018-12-04T02:25:22.539Z,1002.55
2018-12-04T02:26:22.507Z,1002.54
2018-12-04T02:27:22.476Z,1002.51
2018-12-04T02:28:22.442Z,1002.50
2018-12-04T02:29:22.411Z,1002.56
2018-12-04T02:30:22.382Z,1002.56
2018-12-04T02:31:22.347Z,1002.61
2018-12-04T02:32:22.316Z,1002.64
2018-12-04T02:33:22.279Z,1002.64
2018-12-04T02:34:22.248Z,1002.70
2018-12-04T02:35:22.217Z,1002.66
2018-12-04T02:36:22.184Z,1002.72
2018-12-04T02:37:22.152Z,1002.72
2018-12-04T02:38:22.126Z,1002.77
2018-12-04T02:39:22.087Z,1002.81
2018-12-04T02:40:22.055Z,1002.82
2018-12-04T02:41:22.025Z,1002.88
2018-12-04T02:42:21.991Z,1002.88
2018-12-04T02:43:21.958Z,1002.90
2018-12-04T02:44:21.924Z,1002.93
2018-12-04T02:45:21.894Z,1002.98
2018-12-04T02:46:21.861Z,1002.97
2018-12-04T02:47:21.830Z,1003.01
2018-12-04T02:48:21.795Z,1003.00
2018-12-04T02:49:21.763Z,1003.03
2018-12-04T02:50:21.731Z,1003.03
2018-12-04T02:51:21.701Z,1003.05
2018-12-04T02:52:21.676Z,1003.07
2018-12-04T02:53:21.633Z,1003.05
2018-12-04T02:54:21.601Z,1003.11
2018-12-04T02:55:21.570Z,1003.13
2018-12-04T02:56:21.537Z,1003.20
2018-12-04T02:57:21.504Z,1003.21
2018-12-04T02:58:21.469Z,1003.23
2018-12-04T02:59:21.439Z,1003.29
2018-12-04T03:00:21.406Z,1003.33
2018-12-04T03:01:21.372Z,1003.31
2018-12-04T03:02:21.340Z,1003.35
2018-12-04T03:03:21.380Z,1003.43
2018-12-04T03:04:21.274Z,1003.42
2018-12-04T03:05:21.263Z,1003.48
2018-12-04T03:06:21.209Z,1003.49
2018-12-04T03:07:21.178Z,1003.48
2018-12-04T03:08:21.161Z,1003.53
2018-12-04T03:09:21.110Z,1003.53
2018-12-04T03:10:21.083Z,1003.57
2018-12-04T03:11:21.048Z,1003.60
2018-12-04T03:12:21.013Z,1003.61
2018-12-04T03:13:20.981Z,1003.66
2018-12-04T03:14:20.948Z,1003.65
2018-12-04T03:15:20.916Z,1003.70
2018-12-04T03:16:20.887Z,1003.76
2018-12-04T03:17:20.851Z,1003.78
2018-12-04T03:18:20.817Z,1003.79
2018-12-04T03:19:20.791Z,1003.85
2018-12-04T03:20:20.753Z,1003.87
2018-12-04T03:21:20.720Z,1003.95
2018-12-04T03:22:20.687Z,1003.92
2018-12-04T03:23:20.655Z,1003.98
2018-12-04T03:24:20.624Z,1003.96
2018-12-04T03:25:20.593Z,1004.03
2018-12-04T03:26:20.558Z,1004.03
2018-12-04T03:27:20.524Z,1004.05
2018-12-04T03:28:20.493Z,1004.07
2018-12-04T03:29:20.459Z,1004.11
2018-12-04T03:30:20.427Z,1004.13
2018-12-04T03:31:20.396Z,1004.11
2018-12-04T03:32:20.362Z,1004.20
2018-12-04T03:33:20.336Z,1004.19
2018-12-04T03:34:20.297Z,1004.19
2018-12-04T03:35:20.270Z,1004.21
2018-12-04T03:36:20.233Z,1004.23
2018-12-04T03:37:20.199Z,1004.27
2018-12-04T03:38:20.166Z,1004.34
2018-12-04T03:39:20.132Z,1004.29
2018-12-04T03:40:20.099Z,1004.29
2018-12-04T03:41:20.066Z,1004.39
2018-12-04T03:42:20.035Z,1004.38
2018-12-04T03:43:20.001Z,1004.42
2018-12-04T03:44:19.970Z,1004.51
2018-12-04T03:45:19.937Z,1004.51
2018-12-04T03:46:19.902Z,1004.51
2018-12-04T03:47:19.870Z,1004.60
2018-12-04T03:48:19.837Z,1004.62
2018-12-04T03:49:19.804Z,1004.59
2018-12-04T03:50:19.774Z,1004.68
2018-12-04T03:51:19.739Z,1004.65
2018-12-04T03:52:19.705Z,1004.72
2018-12-04T03:53:19.673Z,1004.69
2018-12-04T03:54:19.642Z,1004.74
2018-12-04T03:55:19.608Z,1004.73
2018-12-04T03:56:19.573Z,1004.68
2018-12-04T03:57:19.541Z,1004.73
2018-12-04T03:58:19.508Z,1004.81
2018-12-04T03:59:19.475Z,1004.78
2018-12-04T04:00:19.445Z,1004.84
2018-12-04T04:01:19.408Z,1004.85
2018-12-04T04:02:19.379Z,1004.89
2018-12-04T04:03:19.343Z,1004.94
2018-12-04T04:04:19.311Z,1004.98
2018-12-04T04:05:19.276Z,1004.99
2018-12-04T04:06:19.248Z,1004.97
2018-12-04T04:07:19.212Z,1005.08
2018-12-04T04:08:19.177Z,1005.11
2018-12-04T04:09:19.145Z,1005.12
2018-12-04T04:10:19.112Z,1005.21
2018-12-04T04:11:19.079Z,1005.23
2018-12-04T04:12:19.044Z,1005.31
2018-12-04T04:13:19.012Z,1005.29
2018-12-04T04:14:18.981Z,1005.32
2018-12-04T04:15:18.946Z,1005.35
2018-12-04T04:16:18.914Z,1005.35
2018-12-04T04:17:18.882Z,1005.36
2018-12-04T04:18:18.847Z,1005.40
2018-12-04T04:19:18.815Z,1005.41
2018-12-04T04:20:18.780Z,1005.46
2018-12-04T04:21:18.747Z,1005.49
2018-12-04T04:22:18.720Z,1005.49
2018-12-04T04:23:18.683Z,1005.51
2018-12-04T04:24:18.650Z,1005.56
2018-12-04T04:25:18.616Z,1005.61
2018-12-04T04:26:18.582Z,1005.56
2018-12-04T04:27:18.549Z,1005.62
2018-12-04T04:28:18.518Z,1005.58
2018-12-04T04:29:18.482Z,1005.57
2018-12-04T04:30:18.453Z,1005.63
2018-12-04T04:31:18.418Z,1005.63
2018-12-04T04:32:18.382Z,1005.72
2018-12-04T04:33:18.357Z,1005.71
2018-12-04T04:34:18.319Z,1005.76
2018-12-04T04:35:18.285Z,1005.73
2018-12-04T04:36:18.251Z,1005.81
2018-12-04T04:37:18.218Z,1005.86
2018-12-04T04:38:18.187Z,1005.86
2018-12-04T04:39:18.150Z,1005.89
2018-12-04T04:40:18.118Z,1005.88
2018-12-04T04:41:18.085Z,1005.90
2018-12-04T04:42:18.050Z,1005.95
2018-12-04T04:43:18.018Z,1005.94
2018-12-04T04:44:17.983Z,1005.95
2018-12-04T04:45:17.952Z,1005.93
2018-12-04T04:46:17.919Z,1006.00
2018-12-04T04:47:17.886Z,1005.99
2018-12-04T04:48:17.851Z,1006.05
2018-12-04T04:49:17.820Z,1006.07
2018-12-04T04:50:17.792Z,1006.05
2018-12-04T04:51:17.760Z,1006.13
2018-12-04T04:52:17.719Z,1006.18
2018-12-04T04:53:17.686Z,1006.16
2018-12-04T04:54:17.653Z,1006.17
2018-12-04T04:55:17.621Z,1006.19
2018-12-04T04:56:17.584Z,1006.23
2018-12-04T04:57:17.554Z,1006.29
2018-12-04T04:58:17.519Z,1006.30
2018-12-04T04:59:17.487Z,1006.32
2018-12-04T05:00:17.452Z,1006.35
2018-12-04T05:01:17.420Z,1006.37
2018-12-04T05:02:17.387Z,1006.41
2018-12-04T05:03:17.359Z,1006.45
2018-12-04T05:04:17.319Z,1006.46
2018-12-04T05:05:17.284Z,1006.52
2018-12-04T05:06:17.252Z,1006.51
2018-12-04T05:07:17.219Z,1006.48
2018-12-04T05:08:17.186Z,1006.47
2018-12-04T05:09:17.152Z,1006.57
2018-12-04T05:10:17.120Z,1006.60
2018-12-04T05:11:17.089Z,1006.59
2018-12-04T05:12:17.053Z,1006.61
2018-12-04T05:13:17.018Z,1006.63
2018-12-04T05:14:16.986Z,1006.62
2018-12-04T05:15:16.952Z,1006.61
2018-12-04T05:16:16.922Z,1006.60
2018-12-04T05:17:16.889Z,1006.67
2018-12-04T05:18:16.900Z,1006.64
2018-12-04T05:19:16.818Z,1006.66
2018-12-04T05:20:16.787Z,1006.69
2018-12-04T05:21:16.756Z,1006.69
2018-12-04T05:22:16.719Z,1006.68
2018-12-04T05:23:16.685Z,1006.70
2018-12-04T05:24:16.659Z,1006.70
2018-12-04T05:25:16.618Z,1006.73
2018-12-04T05:26:16.586Z,1006.79
2018-12-04T05:27:16.557Z,1006.81
2018-12-04T05:28:16.519Z,1006.91
2018-12-04T05:29:16.487Z,1006.85
2018-12-04T05:30:16.453Z,1006.89
2018-12-04T05:31:16.420Z,1006.86
2018-12-04T05:32:16.385Z,1006.96
2018-12-04T05:33:16.352Z,1006.95
2018-12-04T05:34:16.320Z,1006.94
2018-12-04T05:35:16.287Z,1006.95
2018-12-04T05:36:16.251Z,1007.01
2018-12-04T05:37:16.218Z,1006.96
2018-12-04T05:38:16.190Z,1006.99
2018-12-04T05:39:16.156Z,1006.99
2018-12-04T05:40:16.119Z,1006.98
2018-12-04T05:41:16.084Z,1007.00
2018-12-04T05:42:16.052Z,1007.04
2018-12-04T05:43:16.021Z,1007.05
2018-12-04T05:44:15.984Z,1007.06
2018-12-04T05:45:15.954Z,1007.08
2018-12-04T05:46:15.917Z,1007.09
2018-12-04T05:47:15.885Z,1007.12
2018-12-04T05:48:15.853Z,1007.14
2018-12-04T05:49:15.817Z,1007.17
2018-12-04T05:50:15.785Z,1007.25
2018-12-04T05:51:15.752Z,1007.22
2018-12-04T05:52:15.720Z,1007.27
2018-12-04T05:53:15.684Z,1007.26
2018-12-04T05:54:15.652Z,1007.31
2018-12-04T05:55:15.619Z,1007.34
2018-12-04T05:56:15.590Z,1007.39
2018-12-04T05:57:15.551Z,1007.38
2018-12-04T05:58:15.516Z,1007.42
2018-12-04T05:59:15.483Z,1007.46
2018-12-04T06:00:15.449Z,1007.49
2018-12-04T06:01:15.417Z,1007.56
2018-12-04T06:02:15.382Z,1007.58
2018-12-04T06:03:15.349Z,1007.58
2018-12-04T06:04:15.315Z,1007.63
2018-12-04T06:05:15.282Z,1007.67
2018-12-04T06:06:15.250Z,1007.65
2018-12-04T06:07:15.213Z,1007.64
2018-12-04T06:08:15.180Z,1007.70
2018-12-04T06:09:15.145Z,1007.68
2018-12-04T06:10:15.114Z,1007.74
2018-12-04T06:11:15.079Z,1007.77
2018-12-04T06:12:15.045Z,1007.84
2018-12-04T06:13:15.013Z,1007.80
2018-12-04T06:14:14.979Z,1007.87
2018-12-04T06:15:14.945Z,1007.90
2018-12-04T06:16:14.911Z,1007.98
2018-12-04T06:17:14.878Z,1008.02
2018-12-04T06:18:14.846Z,1008.10
2018-12-04T06:19:14.810Z,1008.11
2018-12-04T06:20:14.776Z,1008.17
2018-12-04T06:21:14.744Z,1008.27
2018-12-04T06:22:14.755Z,1008.24
2018-12-04T06:23:14.677Z,1008.22
2018-12-04T06:24:14.641Z,1008.20
2018-12-04T06:25:14.610Z,1008.23
2018-12-04T06:26:14.575Z,1008.22
2018-12-04T06:27:14.543Z,1008.23
2018-12-04T06:28:14.508Z,1008.26
2018-12-04T06:29:14.477Z,1008.29
2018-12-04T06:30:14.442Z,1008.34
2018-12-04T06:31:14.409Z,1008.36
2018-12-04T06:32:14.375Z,1008.35
2018-12-04T06:33:14.344Z,1008.40
2018-12-04T06:34:14.312Z,1008.44
2018-12-04T06:35:14.276Z,1008.45
2018-12-04T06:36:14.241Z,1008.48
2018-12-04T06:37:14.208Z,1008.50
2018-12-04T06:38:14.174Z,1008.49
2018-12-04T06:39:14.142Z,1008.53
2018-12-04T06:40:14.107Z,1008.60
2018-12-04T06:41:14.073Z,1008.55
2018-12-04T06:42:14.039Z,1008.61
2018-12-04T06:43:14.007Z,1008.64
2018-12-04T06:44:13.972Z,1008.68
2018-12-04T06:45:13.938Z,1008.67
2018-12-04T06:46:13.906Z,1008.73
2018-12-04T06:47:13.872Z,1008.79
2018-12-04T06:48:13.840Z,1008.79
2018-12-04T06:49:13.802Z,1008.85
2018-12-04T06:50:13.772Z,1008.86
2018-12-04T06:51:13.736Z,1008.89
2018-12-04T06:52:13.703Z,1008.91
2018-12-04T06:53:13.669Z,1008.91
2018-12-04T06:54:13.636Z,1008.94
2018-12-04T06:55:13.604Z,1008.96
2018-12-04T06:56:13.573Z,1008.94
2018-12-04T06:57:13.535Z,1009.02
2018-12-04T06:58:13.506Z,1009.07
2018-12-04T06:59:13.467Z,1009.07
2018-12-04T07:00:13.444Z,1009.08
2018-12-04T07:01:13.401Z,1009.15
2018-12-04T07:02:13.366Z,1009.19
2018-12-04T07:03:13.334Z,1009.19
2018-12-04T07:04:13.299Z,1009.25
2018-12-04T07:05:13.265Z,1009.30
2018-12-04T07:06:13.232Z,1009.34
2018-12-04T07:07:13.199Z,1009.37
2018-12-04T07:08:13.164Z,1009.36
2018-12-04T07:09:13.131Z,1009.43
2018-12-04T07:10:13.098Z,1009.44
2018-12-04T07:11:13.063Z,1009.47
2018-12-04T07:12:13.029Z,1009.52
2018-12-04T07:13:12.996Z,1009.53
2018-12-04T07:14:12.962Z,1009.52
2018-12-04T07:15:12.928Z,1009.53
2018-12-04T07:16:12.896Z,1009.57
2018-12-04T07:17:12.860Z,1009.59
2018-12-04T07:18:12.827Z,1009.64
2018-12-04T07:19:12.794Z,1009.64
2018-12-04T07:20:12.761Z,1009.75
2018-12-04T07:21:12.780Z,1009.72
2018-12-04T07:22:12.691Z,1009.74
2018-12-04T07:23:12.657Z,1009.78
2018-12-04T07:24:12.624Z,1009.79
2018-12-04T07:25:12.590Z,1009.85
2018-12-04T07:26:12.557Z,1009.91
2018-12-04T07:27:12.525Z,1009.90
2018-12-04T07:28:12.488Z,1009.91
2018-12-04T07:29:12.454Z,1009.94
2018-12-04T07:30:12.420Z,1009.93
2018-12-04T07:31:12.389Z,1009.99
2018-12-04T07:32:12.352Z,1009.98
2018-12-04T07:33:12.319Z,1010.07
2018-12-04T07:34:12.285Z,1010.09
2018-12-04T07:35:12.251Z,1010.12
2018-12-04T07:36:12.217Z,1010.17
2018-12-04T07:37:12.183Z,1010.18
2018-12-04T07:38:12.150Z,1010.17
2018-12-04T07:39:12.118Z,1010.23
2018-12-04T07:40:12.081Z,1010.27
2018-12-04T07:41:12.048Z,1010.29
2018-12-04T07:42:12.021Z,1010.28
2018-12-04T07:43:11.981Z,1010.34
2018-12-04T07:44:11.947Z,1010.36
2018-12-04T07:45:11.913Z,1010.37
2018-12-04T07:46:11.890Z,1010.42
2018-12-04T07:47:11.845Z,1010.45
2018-12-04T07:48:12.376Z,1010.45
2018-12-04T07:49:11.777Z,1010.46
2018-12-04T07:50:11.744Z,1010.47
2018-12-04T07:51:11.712Z,1010.38
2018-12-04T07:52:11.677Z,1010.43
2018-12-04T07:53:11.657Z,1010.45
2018-12-04T07:54:11.610Z,1010.46
2018-12-04T07:55:11.577Z,1010.45
2018-12-04T07:56:11.544Z,1010.54
2018-12-04T07:57:11.508Z,1010.59
2018-12-04T07:58:11.486Z,1010.58
2018-12-04T07:59:11.441Z,1010.55
2018-12-04T08:00:11.407Z,1010.58
2018-12-04T08:01:11.373Z,1010.63
2018-12-04T08:02:11.341Z,1010.70
2018-12-04T08:03:11.307Z,1010.71
2018-12-04T08:04:11.273Z,1010.74
2018-12-04T08:05:11.239Z,1010.74
2018-12-04T08:06:11.206Z,1010.83
2018-12-04T08:07:11.172Z,1010.86
2018-12-04T08:08:11.139Z,1010.84
2018-12-04T08:09:11.107Z,1010.87
2018-12-04T08:10:11.072Z,1010.94
2018-12-04T08:11:11.037Z,1010.94
2018-12-04T08:12:11.005Z,1010.99
2018-12-04T08:13:10.971Z,1011.04
2018-12-04T08:14:10.937Z,1011.00
2018-12-04T08:15:10.903Z,1011.06
2018-12-04T08:16:10.870Z,1011.04
2018-12-04T08:17:10.837Z,1011.03
2018-12-04T08:18:10.802Z,1011.04
2018-12-04T08:19:10.772Z,1011.10
2018-12-04T08:20:10.735Z,1011.11
2018-12-04T08:21:10.703Z,1011.17
2018-12-04T08:22:10.669Z,1011.20
2018-12-04T08:23:10.636Z,1011.24
2018-12-04T08:24:10.601Z,1011.29
2018-12-04T08:25:10.569Z,1011.36
2018-12-04T08:26:10.535Z,1011.44
2018-12-04T08:27:10.502Z,1011.49
2018-12-04T08:28:10.469Z,1011.52
2018-12-04T08:29:10.435Z,1011.54
2018-12-04T08:30:10.406Z,1011.53
2018-12-04T08:31:10.369Z,1011.48
2018-12-04T08:32:10.337Z,1011.55
2018-12-04T08:33:10.302Z,1011.55
2018-12-04T08:34:10.270Z,1011.55
2018-12-04T08:35:10.236Z,1011.55
2018-12-04T08:36:10.202Z,1011.53
2018-12-04T08:37:10.169Z,1011.61
2018-12-04T08:38:10.137Z,1011.63
2018-12-04T08:39:13.040Z,1011.76
2018-12-04T08:40:10.068Z,1011.71
2018-12-04T08:41:10.037Z,1011.69
2018-12-04T08:42:10.005Z,1011.72
2018-12-04T08:43:09.970Z,1011.82
2018-12-04T08:44:09.936Z,1011.84
2018-12-04T08:45:09.905Z,1011.81
2018-12-04T08:46:09.874Z,1011.88
2018-12-04T08:47:09.838Z,1011.84
2018-12-04T08:48:09.806Z,1011.82
2018-12-04T08:49:09.774Z,1011.78
2018-12-04T08:50:09.741Z,1011.83
2018-12-04T08:51:09.708Z,1011.88
2018-12-04T08:52:09.680Z,1011.85
2018-12-04T08:53:09.644Z,1011.85
2018-12-04T08:54:09.615Z,1011.84
2018-12-04T08:55:09.580Z,1011.90
2018-12-04T08:56:09.546Z,1011.88
2018-12-04T08:57:09.514Z,1011.89
2018-12-04T08:58:09.483Z,1011.98
2018-12-04T08:59:09.452Z,1011.96
2018-12-04T09:00:09.418Z,1012.02
2018-12-04T09:01:09.386Z,1012.05
2018-12-04T09:02:09.356Z,1012.05
2018-12-04T09:03:09.323Z,1012.06
2018-12-04T09:04:09.291Z,1012.08
2018-12-04T09:05:09.268Z,1012.15
2018-12-04T09:06:09.228Z,1012.09
2018-12-04T09:07:09.197Z,1012.11
2018-12-04T09:08:09.597Z,1012.06
2018-12-04T09:09:09.142Z,1012.12
2018-12-04T09:10:09.110Z,1012.22
2018-12-04T09:11:09.073Z,1012.27
2018-12-04T09:12:09.039Z,1012.39
2018-12-04T09:13:09.008Z,1012.41
2018-12-04T09:14:08.977Z,1012.37
2018-12-04T09:15:08.945Z,1012.42
2018-12-04T09:16:08.914Z,1012.43
2018-12-04T09:17:08.883Z,1012.46
2018-12-04T09:18:08.860Z,1012.56
2018-12-04T09:19:08.871Z,1012.64
2018-12-04T09:20:08.831Z,1012.65
2018-12-04T09:21:08.803Z,1012.61
2018-12-04T09:22:08.851Z,1012.62
2018-12-04T09:23:08.747Z,1012.62
2018-12-04T09:24:08.685Z,1012.67
2018-12-04T09:25:08.654Z,1012.75
2018-12-04T09:26:08.633Z,1012.74
2018-12-04T09:27:08.607Z,1012.73
2018-12-04T09:28:08.542Z,1012.76
2018-12-04T09:29:08.574Z,1012.82
2018-12-04T09:30:08.492Z,1012.81
2018-12-04T09:31:08.451Z,1012.81
2018-12-04T09:32:08.420Z,1012.86
2018-12-04T09:33:08.389Z,1012.88
2018-12-04T09:34:08.360Z,1012.87
2018-12-04T09:35:08.328Z,1012.92
2018-12-04T09:36:08.298Z,1012.93
2018-12-04T09:37:08.267Z,1012.90
2018-12-04T09:38:08.238Z,1013.00
2018-12-04T09:39:08.206Z,1012.96
2018-12-04T09:40:08.174Z,1012.98
2018-12-04T09:41:08.144Z,1013.05
2018-12-04T09:42:08.116Z,1012.95
2018-12-04T09:43:08.085Z,1013.01
2018-12-04T09:44:08.057Z,1013.04
2018-12-04T09:45:08.030Z,1013.13
2018-12-04T09:46:07.994Z,1013.01
2018-12-04T09:47:07.964Z,1013.05
2018-12-04T09:48:07.946Z,1013.00
2018-12-04T09:49:07.902Z,1013.06
2018-12-04T09:50:07.877Z,1013.05
2018-12-04T09:51:07.846Z,1013.04
2018-12-04T09:52:07.810Z,1013.09
2018-12-04T09:53:07.783Z,1013.16
2018-12-04T09:54:07.755Z,1013.13
2018-12-04T09:55:07.720Z,1013.13
2018-12-04T09:56:07.693Z,1013.10
2018-12-04T09:57:07.660Z,1013.15
2018-12-04T09:58:07.629Z,1013.14
2018-12-04T09:59:07.691Z,1013.11
2018-12-04T10:00:07.571Z,1013.16
2018-12-04T10:01:07.537Z,1013.12
2018-12-04T10:02:07.507Z,1013.18
2018-12-04T10:03:07.479Z,1013.24
2018-12-04T10:04:07.448Z,1013.22
2018-12-04T10:05:07.417Z,1013.25
2018-12-04T10:06:07.387Z,1013.29
2018-12-04T10:07:07.356Z,1013.28
2018-12-04T10:08:07.325Z,1013.23
2018-12-04T10:09:07.296Z,1013.25
2018-12-04T10:10:07.266Z,1013.31
2018-12-04T10:11:07.235Z,1013.22
2018-12-04T10:12:07.206Z,1013.26
2018-12-04T10:13:07.175Z,1013.36
2018-12-04T10:14:07.145Z,1013.33
2018-12-04T10:15:07.115Z,1013.31
2018-12-04T10:16:07.085Z,1013.36
2018-12-04T10:17:07.053Z,1013.40
2018-12-04T10:18:07.024Z,1013.43
2018-12-04T10:19:06.995Z,1013.33
2018-12-04T10:20:06.963Z,1013.37
2018-12-04T10:21:06.932Z,1013.44
2018-12-04T10:22:06.903Z,1013.44
2018-12-04T10:23:06.871Z,1013.45
2018-12-04T10:24:06.840Z,1013.46
2018-12-04T10:25:06.818Z,1013.52
2018-12-04T10:26:06.780Z,1013.48
2018-12-04T10:27:06.749Z,1013.49
2018-12-04T10:28:06.717Z,1013.51
2018-12-04T10:29:06.690Z,1013.48
2018-12-04T10:30:06.658Z,1013.49
2018-12-04T10:31:06.626Z,1013.48
2018-12-04T10:32:06.595Z,1013.55
2018-12-04T10:33:06.564Z,1013.56
2018-12-04T10:34:06.535Z,1013.51
2018-12-04T10:35:06.506Z,1013.64
2018-12-04T10:36:06.470Z,1013.60
2018-12-04T10:37:06.442Z,1013.68
2018-12-04T10:38:06.411Z,1013.71
2018-12-04T10:39:06.380Z,1013.75
2018-12-04T10:40:06.347Z,1013.73
2018-12-04T10:41:06.318Z,1013.75
2018-12-04T10:42:06.287Z,1013.70
2018-12-04T10:43:06.256Z,1013.76
2018-12-04T10:44:06.226Z,1013.78
2018-12-04T10:45:06.194Z,1013.81
2018-12-04T10:46:06.163Z,1013.81
2018-12-04T10:47:06.132Z,1013.79
2018-12-04T10:48:06.101Z,1013.83
2018-12-04T10:49:06.073Z,1013.73
2018-12-04T10:50:06.042Z,1013.82
2018-12-04T10:51:06.011Z,1013.80
2018-12-04T10:52:05.979Z,1013.84
2018-12-04T10:53:05.947Z,1013.89
2018-12-04T10:54:05.918Z,1013.87
2018-12-04T10:55:05.887Z,1013.93
2018-12-04T10:56:05.854Z,1013.81
2018-12-04T10:57:09.757Z,1013.85
2018-12-04T10:58:05.793Z,1013.92
2018-12-04T10:59:05.762Z,1014.01
2018-12-04T11:00:06.041Z,1013.98
2018-12-04T11:01:05.702Z,1014.01
2018-12-04T11:02:05.673Z,1014.03
2018-12-04T11:03:05.653Z,1014.06
2018-12-04T11:04:05.607Z,1014.17
2018-12-04T11:05:05.577Z,1014.14
2018-12-04T11:06:05.546Z,1014.17
2018-12-04T11:07:05.514Z,1014.21
2018-12-04T11:08:05.483Z,1014.23
2018-12-04T11:09:05.453Z,1014.25
2018-12-04T11:10:05.420Z,1014.29
2018-12-04T11:11:05.391Z,1014.30
2018-12-04T11:12:05.359Z,1014.34
2018-12-04T11:13:05.332Z,1014.26
2018-12-04T11:14:05.297Z,1014.36
2018-12-04T11:15:05.267Z,1014.35
2018-12-04T11:16:05.233Z,1014.37
2018-12-04T11:17:05.205Z,1014.43
2018-12-04T11:18:05.172Z,1014.42
2018-12-04T11:19:05.140Z,1014.39
2018-12-04T11:20:05.109Z,1014.41
2018-12-04T11:21:05.080Z,1014.39
2018-12-04T11:22:05.046Z,1014.37
2018-12-04T11:23:05.015Z,1014.44
2018-12-04T11:24:04.984Z,1014.46
2018-12-04T11:25:04.952Z,1014.50
2018-12-04T11:26:04.921Z,1014.49
2018-12-04T11:27:04.890Z,1014.55
2018-12-04T11:28:04.857Z,1014.54
2018-12-04T11:29:04.827Z,1014.60
2018-12-04T11:30:04.795Z,1014.60
2018-12-04T11:31:04.769Z,1014.64
2018-12-04T11:32:04.732Z,1014.75
2018-12-04T11:33:04.702Z,1014.68
2018-12-04T11:34:04.670Z,1014.67
2018-12-04T11:35:04.639Z,1014.75
2018-12-04T11:36:04.607Z,1014.74
2018-12-04T11:37:04.577Z,1014.71
2018-12-04T11:38:04.546Z,1014.70
2018-12-04T11:39:04.512Z,1014.77
2018-12-04T11:40:04.481Z,1014.80
2018-12-04T11:41:04.450Z,1014.83
2018-12-04T11:42:04.421Z,1014.83
2018-12-04T11:43:04.390Z,1014.74
2018-12-04T11:44:04.357Z,1014.80
2018-12-04T11:45:04.323Z,1014.81
2018-12-04T11:46:04.291Z,1014.81
2018-12-04T11:47:04.260Z,1014.84
2018-12-04T11:48:04.227Z,1014.76
2018-12-04T11:49:04.196Z,1014.85
2018-12-04T11:50:04.167Z,1014.76
2018-12-04T11:51:04.137Z,1014.92
2018-12-04T11:52:04.103Z,1014.93
2018-12-04T11:53:04.071Z,1015.08
2018-12-04T11:54:04.043Z,1014.96
2018-12-04T11:55:04.010Z,1014.96
2018-12-04T11:56:03.976Z,1014.97
2018-12-04T11:57:03.945Z,1014.98
2018-12-04T11:58:03.913Z,1015.02
2018-12-04T11:59:03.884Z,1015.00
2018-12-04T12:00:03.849Z,1015.02
2018-12-04T12:01:03.818Z,1015.05
2018-12-04T12:02:03.788Z,1015.01
2018-12-04T12:03:03.757Z,1015.15
2018-12-04T12:04:04.558Z,1015.15
2018-12-04T12:05:03.692Z,1015.25
2018-12-04T12:06:03.661Z,1015.27
2018-12-04T12:07:03.630Z,1015.28